Terminal Aerodrome Forecast
Issued by NWS

Home | Current Version | Previous Version | Text Only | Print | Product List | Glossary On
Versions: 1 2 3 4 5 6 7 8 9 10 11 12 13
000
FTUS46 KPDT 271100
TAFBDN
TAF
KBDN 271136Z 2712/2812 VRB03KT P6SM SKC
     FM272100 23005KT P6SM SCT070 BKN120
     FM280000 32010KT P6SM VCTS BKN070CB
     FM280300 27014G20KT P6SM -SHRA BKN035 OVC070=

USA.gov is the U.S. government's official web portal to all federal, state and local government web resources and services.